Time;durP1;ratioP1;P1;durP2;ratioP2;P2;SDS_P1;SDS_P2;PMS_P1;PMS_P2;Temp;Humidity;BMP_temperature;BMP_pressure;BME280_temperature;BME280_humidity;BME280_pressure;Samples;Min_cycle;Max_cycle;Signal;HPM_P1;HPM_P2
2024/03/22 00:02:07;;;;;;;13.37;11.33;;;;;;;;;;4994522;28;20225;-86
2024/03/22 00:04:32;;;;;;;15.60;12.00;;;;;;;;;;4983216;28;20225;-85
2024/03/22 00:06:58;;;;;;;14.23;11.53;;;;;;;;;;4979277;28;20275;-85
2024/03/22 00:09:23;;;;;;;13.70;11.07;;;;;;;;;;4967459;28;20331;-84
2024/03/22 00:11:49;;;;;;;13.97;11.37;;;;;;;;;;4979141;28;20221;-85
2024/03/22 00:14:18;;;;;;;15.53;11.07;;;;;;;;;;4976776;28;20220;-85
2024/03/22 00:16:43;;;;;;;13.20;11.20;;;;;;;;;;4968843;28;20231;-85
2024/03/22 00:19:09;;;;;;;12.73;11.40;;;;;;;;;;4978072;28;20210;-83
2024/03/22 00:21:37;;;;;;;13.67;11.60;;;;;;;;;;4978744;28;20226;-85
2024/03/22 00:24:03;;;;;;;13.03;11.73;;;;;;;;;;4945497;28;20229;-83
2024/03/22 00:26:28;;;;;;;13.23;11.67;;;;;;;;;;4995656;28;20232;-83
2024/03/22 00:28:54;;;;;;;13.27;11.97;;;;;;;;;;4983958;28;20248;-83
2024/03/22 00:31:22;;;;;;;15.40;11.90;;;;;;;;;;5012216;28;20305;-83
2024/03/22 00:33:48;;;;;;;16.57;11.30;;;;;;;;;;5033175;28;20261;-85
2024/03/22 00:36:13;;;;;;;13.33;11.93;;;;;;;;;;4991317;28;20220;-85
2024/03/22 00:38:39;;;;;;;14.67;12.83;;;;;;;;;;5017059;28;20217;-85
2024/03/22 00:41:07;;;;;;;13.63;11.83;;;;;;;;;;4987194;28;20233;-84
2024/03/22 00:43:35;;;;;;;14.77;13.23;;;;;;;;;;5019158;28;20227;-84
2024/03/22 00:46:05;;;;;;;14.30;12.87;;;;;;;;;;4971037;28;20256;-84
2024/03/22 00:48:36;;;;;;;15.43;13.07;;;;;;;;;;4991227;28;20221;-84
2024/03/22 00:51:04;;;;;;;15.13;13.10;;;;;;;;;;5009582;28;20509;-84
2024/03/22 00:53:31;;;;;;;14.30;12.80;;;;;;;;;;4992337;28;20225;-84
2024/03/22 00:55:59;;;;;;;16.77;13.53;;;;;;;;;;5000001;28;20233;-85
2024/03/22 00:58:27;;;;;;;16.00;14.30;;;;;;;;;;5000735;28;20213;-84
2024/03/22 01:00:54;;;;;;;15.47;13.87;;;;;;;;;;4975832;28;20229;-84
2024/03/22 01:03:20;;;;;;;17.33;14.10;;;;;;;;;;4976816;28;20249;-84
2024/03/22 01:05:46;;;;;;;16.43;14.37;;;;;;;;;;4988699;28;20237;-84
2024/03/22 01:08:12;;;;;;;16.07;14.30;;;;;;;;;;4974361;28;20214;-86
2024/03/22 01:10:39;;;;;;;17.83;14.43;;;;;;;;;;4985561;28;20256;-85
2024/03/22 01:13:10;;;;;;;16.23;13.97;;;;;;;;;;4985773;28;20218;-85
2024/03/22 01:15:38;;;;;;;18.27;15.23;;;;;;;;;;4980212;28;20248;-84
2024/03/22 01:18:05;;;;;;;16.27;14.67;;;;;;;;;;4988527;28;20205;-83
2024/03/22 01:20:36;;;;;;;18.67;15.30;;;;;;;;;;4975201;28;20259;-85
2024/03/22 01:23:04;;;;;;;19.60;15.57;;;;;;;;;;5018900;28;20316;-84
2024/03/22 01:25:29;;;;;;;18.53;16.63;;;;;;;;;;4989322;28;20243;-84
2024/03/22 01:27:55;;;;;;;18.93;17.00;;;;;;;;;;4982883;28;20281;-84
2024/03/22 01:30:28;;;;;;;19.67;17.57;;;;;;;;;;4969922;28;20252;-85
2024/03/22 01:32:58;;;;;;;19.80;17.70;;;;;;;;;;4989821;28;20247;-85
2024/03/22 01:35:26;;;;;;;19.70;17.77;;;;;;;;;;4985943;28;20237;-83
2024/03/22 01:37:52;;;;;;;20.50;18.33;;;;;;;;;;5012241;28;20255;-85
2024/03/22 01:40:23;;;;;;;20.27;17.77;;;;;;;;;;4987327;28;20701;-84
2024/03/22 01:42:55;;;;;;;20.57;18.47;;;;;;;;;;4982041;28;20257;-85
2024/03/22 01:45:21;;;;;;;20.70;18.50;;;;;;;;;;4980187;28;20222;-84
2024/03/22 01:47:49;;;;;;;20.60;18.10;;;;;;;;;;4995296;28;20325;-84
2024/03/22 01:50:15;;;;;;;21.90;18.73;;;;;;;;;;4968623;28;20233;-84
2024/03/22 01:52:42;;;;;;;22.97;20.63;;;;;;;;;;4955560;28;20241;-84
2024/03/22 01:55:08;;;;;;;22.93;20.53;;;;;;;;;;4985822;28;20228;-83
2024/03/22 01:57:36;;;;;;;22.70;20.30;;;;;;;;;;4967031;28;20633;-84
2024/03/22 02:00:02;;;;;;;21.80;19.63;;;;;;;;;;4971894;28;20219;-85
2024/03/22 02:02:30;;;;;;;22.90;20.60;;;;;;;;;;4994192;28;20226;-83
2024/03/22 02:04:57;;;;;;;23.03;20.53;;;;;;;;;;5011007;28;20264;-82
2024/03/22 02:07:24;;;;;;;24.10;21.60;;;;;;;;;;5015036;28;20224;-85
2024/03/22 02:09:50;;;;;;;23.63;21.00;;;;;;;;;;4984521;28;20226;-82
2024/03/22 02:12:15;;;;;;;24.67;22.07;;;;;;;;;;5015193;28;20742;-85
2024/03/22 02:14:44;;;;;;;24.37;21.77;;;;;;;;;;4977513;28;20301;-85
2024/03/22 02:17:11;;;;;;;25.90;22.33;;;;;;;;;;4956166;28;20213;-83
2024/03/22 02:19:37;;;;;;;24.30;21.77;;;;;;;;;;5009434;28;20222;-84
2024/03/22 02:22:04;;;;;;;25.57;22.77;;;;;;;;;;4953925;28;20227;-83
2024/03/22 02:24:30;;;;;;;26.30;22.37;;;;;;;;;;4987688;28;20638;-84
2024/03/22 02:27:00;;;;;;;25.67;22.97;;;;;;;;;;4979062;28;20229;-85
2024/03/22 02:29:28;;;;;;;26.97;22.77;;;;;;;;;;4974485;28;20237;-84
2024/03/22 02:31:58;;;;;;;25.10;22.30;;;;;;;;;;4977425;28;20229;-84
2024/03/22 02:34:25;;;;;;;25.77;23.07;;;;;;;;;;5008133;28;20217;-84
2024/03/22 02:36:53;;;;;;;26.97;23.87;;;;;;;;;;4975164;28;20233;-84
2024/03/22 02:39:21;;;;;;;26.30;23.50;;;;;;;;;;4966346;28;20213;-85
2024/03/22 02:41:46;;;;;;;26.47;23.67;;;;;;;;;;5011704;28;20227;-84
2024/03/22 02:44:14;;;;;;;27.07;24.27;;;;;;;;;;4997431;28;20216;-85
2024/03/22 02:46:44;;;;;;;27.13;23.70;;;;;;;;;;4993690;28;20325;-84
2024/03/22 02:49:12;;;;;;;26.67;23.87;;;;;;;;;;4993981;28;20213;-85
2024/03/22 02:51:40;;;;;;;27.70;24.80;;;;;;;;;;4967206;28;20217;-84
2024/03/22 02:54:07;;;;;;;26.80;24.10;;;;;;;;;;4990711;28;20230;-83
2024/03/22 02:56:35;;;;;;;27.10;24.27;;;;;;;;;;5011655;28;20221;-85
2024/03/22 02:59:01;;;;;;;27.13;24.23;;;;;;;;;;4996371;28;20284;-84
2024/03/22 03:01:31;;;;;;;27.83;24.87;;;;;;;;;;4983106;28;20224;-85
2024/03/22 03:04:01;;;;;;;28.67;25.57;;;;;;;;;;4961167;28;20249;-84
2024/03/22 03:06:29;;;;;;;28.57;25.57;;;;;;;;;;5006695;28;20232;-84
2024/03/22 03:08:54;;;;;;;29.20;25.90;;;;;;;;;;4990424;28;20214;-84
2024/03/22 03:11:24;;;;;;;28.80;25.73;;;;;;;;;;4960319;28;20222;-85
2024/03/22 03:13:50;;;;;;;28.37;25.43;;;;;;;;;;4975429;28;20229;-84
2024/03/22 03:16:18;;;;;;;29.10;25.97;;;;;;;;;;4996846;28;20221;-83
2024/03/22 03:18:48;;;;;;;29.47;25.80;;;;;;;;;;4990477;28;20970;-84
2024/03/22 03:21:13;;;;;;;30.03;25.67;;;;;;;;;;4966106;28;20236;-84
2024/03/22 03:23:39;;;;;;;28.77;25.63;;;;;;;;;;4979646;28;20218;-85
2024/03/22 03:26:04;;;;;;;29.30;26.03;;;;;;;;;;4958970;28;20239;-83
2024/03/22 03:28:30;;;;;;;28.97;25.87;;;;;;;;;;4982546;28;20228;-84
2024/03/22 03:30:55;;;;;;;28.90;25.80;;;;;;;;;;5008654;28;21108;-83
2024/03/22 03:33:26;;;;;;;29.77;26.60;;;;;;;;;;5013640;28;20229;-85
2024/03/22 03:35:54;;;;;;;30.37;26.40;;;;;;;;;;5019172;28;20649;-84
2024/03/22 03:38:19;;;;;;;29.17;26.27;;;;;;;;;;4981531;28;20244;-83
2024/03/22 03:40:50;;;;;;;29.20;26.10;;;;;;;;;;4977507;28;20229;-83
2024/03/22 03:43:18;;;;;;;31.73;26.83;;;;;;;;;;4968716;28;20249;-84
2024/03/22 03:45:44;;;;;;;32.63;28.03;;;;;;;;;;4967998;28;20225;-83
2024/03/22 03:48:09;;;;;;;30.30;27.00;;;;;;;;;;5012943;28;20236;-83
2024/03/22 03:50:37;;;;;;;31.50;28.03;;;;;;;;;;4974280;28;20230;-83
2024/03/22 03:53:03;;;;;;;31.67;28.30;;;;;;;;;;5018700;28;20290;-83
2024/03/22 03:55:30;;;;;;;32.17;28.80;;;;;;;;;;4986301;28;20287;-83
2024/03/22 04:01:43;;;;;;;37.37;30.30;;;;;;;;;;4992480;28;20231;-84
2024/03/22 04:04:12;;;;;;;32.67;28.73;;;;;;;;;;4977426;28;20666;-82
2024/03/22 04:06:37;;;;;;;37.57;29.93;;;;;;;;;;4964459;28;20300;-83
2024/03/22 04:09:03;;;;;;;34.33;30.03;;;;;;;;;;5007521;28;20279;-81
2024/03/22 04:11:33;;;;;;;37.53;30.60;;;;;;;;;;4979383;28;20240;-84
2024/03/22 04:14:01;;;;;;;36.00;30.60;;;;;;;;;;5011614;28;20265;-82
2024/03/22 04:16:29;;;;;;;35.63;30.53;;;;;;;;;;4974668;28;20218;-83
2024/03/22 04:18:55;;;;;;;36.60;32.10;;;;;;;;;;4961137;28;20790;-84
2024/03/22 04:21:23;;;;;;;37.13;32.07;;;;;;;;;;5013680;28;20322;-84
2024/03/22 04:23:51;;;;;;;35.60;31.67;;;;;;;;;;4973890;28;21094;-83
2024/03/22 04:26:17;;;;;;;39.43;32.93;;;;;;;;;;4993264;28;20293;-83
2024/03/22 04:28:44;;;;;;;39.83;33.40;;;;;;;;;;4966747;28;20281;-84
2024/03/22 04:31:12;;;;;;;39.07;34.43;;;;;;;;;;4987541;28;20240;-83
2024/03/22 04:33:38;;;;;;;39.83;35.07;;;;;;;;;;4991667;28;20281;-84
2024/03/22 04:36:03;;;;;;;41.13;34.87;;;;;;;;;;5005385;28;20257;-82
2024/03/22 04:38:31;;;;;;;41.30;34.57;;;;;;;;;;4967116;28;20228;-83
2024/03/22 04:40:57;;;;;;;42.20;35.33;;;;;;;;;;4992937;28;20225;-84
2024/03/22 04:43:25;;;;;;;41.90;35.93;;;;;;;;;;4992575;28;20225;-84
2024/03/22 04:45:55;;;;;;;43.07;36.23;;;;;;;;;;5013795;28;20226;-83
2024/03/22 04:48:26;;;;;;;44.90;37.40;;;;;;;;;;4976565;28;21809;-83
2024/03/22 04:50:54;;;;;;;45.97;37.50;;;;;;;;;;4971121;28;20237;-84
2024/03/22 04:53:22;;;;;;;44.67;37.73;;;;;;;;;;4939149;28;20229;-84
2024/03/22 04:55:48;;;;;;;44.53;37.83;;;;;;;;;;4990992;28;20256;-83
2024/03/22 04:58:14;;;;;;;47.17;38.33;;;;;;;;;;4986803;28;20272;-82
2024/03/22 05:00:40;;;;;;;46.40;37.77;;;;;;;;;;4977001;28;20225;-85
2024/03/22 05:03:06;;;;;;;47.10;38.03;;;;;;;;;;4969866;28;20229;-84
2024/03/22 05:05:31;;;;;;;48.03;38.80;;;;;;;;;;4976136;28;20599;-83
2024/03/22 05:07:59;;;;;;;50.17;40.20;;;;;;;;;;4987110;28;20253;-84
2024/03/22 05:10:24;;;;;;;49.37;40.87;;;;;;;;;;4960370;28;20233;-83
2024/03/22 05:12:50;;;;;;;46.90;38.07;;;;;;;;;;4960102;28;20242;-82
2024/03/22 05:15:19;;;;;;;49.87;40.37;;;;;;;;;;5002698;28;20226;-85
2024/03/22 05:17:47;;;;;;;49.63;40.83;;;;;;;;;;4976993;28;20241;-84
2024/03/22 05:20:17;;;;;;;50.47;40.43;;;;;;;;;;4987813;28;20225;-84
2024/03/22 05:22:42;;;;;;;51.40;40.43;;;;;;;;;;4962717;28;20214;-84
2024/03/22 05:25:08;;;;;;;54.63;41.43;;;;;;;;;;4958017;28;20276;-83
2024/03/22 05:27:41;;;;;;;51.37;40.43;;;;;;;;;;4998054;28;20260;-84
2024/03/22 05:30:08;;;;;;;53.23;42.00;;;;;;;;;;4985552;28;20245;-84
2024/03/22 05:32:33;;;;;;;51.03;40.63;;;;;;;;;;4975689;28;20221;-85
2024/03/22 05:35:01;;;;;;;53.10;41.87;;;;;;;;;;5008562;28;20241;-83
2024/03/22 05:37:29;;;;;;;52.27;41.80;;;;;;;;;;4976056;28;20320;-84
2024/03/22 05:39:55;;;;;;;54.43;41.77;;;;;;;;;;4967283;28;20209;-83
2024/03/22 05:42:22;;;;;;;52.07;41.40;;;;;;;;;;5013691;28;22431;-84
2024/03/22 05:44:52;;;;;;;54.67;42.13;;;;;;;;;;4967822;28;20270;-84
2024/03/22 05:47:20;;;;;;;60.27;43.13;;;;;;;;;;4963656;28;20222;-85
2024/03/22 05:49:46;;;;;;;58.37;43.20;;;;;;;;;;4957497;28;20237;-84
2024/03/22 05:52:14;;;;;;;57.57;43.17;;;;;;;;;;5006823;28;20229;-84
2024/03/22 05:54:40;;;;;;;58.20;44.33;;;;;;;;;;4965164;28;20229;-83
2024/03/22 05:57:05;;;;;;;60.27;44.63;;;;;;;;;;4980942;28;20225;-84
2024/03/22 05:59:33;;;;;;;58.03;43.43;;;;;;;;;;4988303;28;20230;-86
2024/03/22 06:02:02;;;;;;;60.03;45.17;;;;;;;;;;4973501;28;20702;-84
2024/03/22 06:04:27;;;;;;;56.23;44.13;;;;;;;;;;4981954;28;20239;-84
2024/03/22 06:06:53;;;;;;;60.10;44.37;;;;;;;;;;4964887;28;20226;-85
2024/03/22 06:09:24;;;;;;;55.50;43.50;;;;;;;;;;4981395;28;20230;-84
2024/03/22 06:11:50;;;;;;;59.50;44.50;;;;;;;;;;4967238;28;20218;-84
2024/03/22 06:14:17;;;;;;;58.20;44.50;;;;;;;;;;4962753;28;20307;-83
2024/03/22 06:16:44;;;;;;;59.87;46.20;;;;;;;;;;4964199;28;20214;-85
2024/03/22 06:19:10;;;;;;;59.57;43.27;;;;;;;;;;4981425;28;20221;-84
2024/03/22 06:21:36;;;;;;;61.87;46.17;;;;;;;;;;4982442;28;20228;-84
2024/03/22 06:24:04;;;;;;;61.67;46.07;;;;;;;;;;4977067;28;20280;-84
2024/03/22 06:26:32;;;;;;;62.10;44.67;;;;;;;;;;4996298;28;20215;-85
2024/03/22 06:28:57;;;;;;;64.33;46.10;;;;;;;;;;4957012;28;20214;-85
2024/03/22 06:31:25;;;;;;;59.93;44.20;;;;;;;;;;4967189;28;20264;-84
2024/03/22 06:33:56;;;;;;;61.73;46.10;;;;;;;;;;4958238;28;20225;-84
2024/03/22 06:36:25;;;;;;;63.03;45.53;;;;;;;;;;5014963;28;20225;-84
2024/03/22 06:38:50;;;;;;;63.80;45.23;;;;;;;;;;4970903;28;20221;-85
2024/03/22 06:41:18;;;;;;;62.87;46.20;;;;;;;;;;5021027;28;20244;-85
2024/03/22 06:43:46;;;;;;;65.73;47.27;;;;;;;;;;4975322;28;20216;-85
2024/03/22 06:46:15;;;;;;;65.20;45.40;;;;;;;;;;4987587;28;20252;-84
2024/03/22 06:48:40;;;;;;;62.90;44.67;;;;;;;;;;4997345;28;20220;-86
2024/03/22 06:51:08;;;;;;;61.30;44.50;;;;;;;;;;4987307;28;20896;-84
2024/03/22 06:53:36;;;;;;;62.20;45.27;;;;;;;;;;4981767;28;20220;-85
2024/03/22 06:56:04;;;;;;;64.77;46.10;;;;;;;;;;4983041;28;20240;-85
2024/03/22 06:58:31;;;;;;;68.67;47.27;;;;;;;;;;5005526;28;20253;-85
2024/03/22 07:00:57;;;;;;;64.07;47.13;;;;;;;;;;4987436;28;20242;-83
2024/03/22 07:03:23;;;;;;;65.37;45.93;;;;;;;;;;4975599;28;20239;-85
2024/03/22 07:05:53;;;;;;;62.73;44.63;;;;;;;;;;5005547;28;20237;-85
2024/03/22 07:08:26;;;;;;;72.37;50.63;;;;;;;;;;4978992;28;20293;-83
2024/03/22 07:10:54;;;;;;;67.77;48.33;;;;;;;;;;4998305;28;20233;-83
2024/03/22 07:13:20;;;;;;;60.70;45.47;;;;;;;;;;4976837;28;20222;-85
2024/03/22 07:15:49;;;;;;;62.40;45.27;;;;;;;;;;4999902;28;20279;-86
2024/03/22 07:18:17;;;;;;;61.27;45.20;;;;;;;;;;4960458;28;20594;-82
2024/03/22 07:20:44;;;;;;;61.40;43.77;;;;;;;;;;4968564;28;20225;-85
2024/03/22 07:23:12;;;;;;;63.50;44.97;;;;;;;;;;4990187;28;20306;-86
2024/03/22 07:25:42;;;;;;;59.10;42.93;;;;;;;;;;4991718;28;20229;-86
2024/03/22 07:28:08;;;;;;;66.10;45.90;;;;;;;;;;5011796;28;20221;-85
2024/03/22 07:30:35;;;;;;;64.97;43.33;;;;;;;;;;4958585;28;20725;-85
2024/03/22 07:33:01;;;;;;;65.30;43.67;;;;;;;;;;4962801;28;20222;-84
2024/03/22 07:35:26;;;;;;;57.53;43.60;;;;;;;;;;4979218;28;20242;-84
2024/03/22 07:37:59;;;;;;;60.93;43.27;;;;;;;;;;5009162;28;20221;-84
2024/03/22 07:40:24;;;;;;;63.20;44.40;;;;;;;;;;4963530;28;20225;-84
2024/03/22 07:42:52;;;;;;;60.23;44.07;;;;;;;;;;4990563;28;20233;-84
2024/03/22 07:45:18;;;;;;;63.00;45.00;;;;;;;;;;4978043;28;20221;-84
2024/03/22 07:47:43;;;;;;;61.77;43.37;;;;;;;;;;4963728;28;20632;-83
2024/03/22 07:50:09;;;;;;;61.87;43.90;;;;;;;;;;4973602;28;20793;-83
2024/03/22 07:52:35;;;;;;;65.43;45.10;;;;;;;;;;4980680;28;20345;-86
2024/03/22 07:55:02;;;;;;;66.90;46.37;;;;;;;;;;4958383;28;20256;-84
2024/03/22 07:57:30;;;;;;;60.77;44.37;;;;;;;;;;4958948;28;20236;-83
2024/03/22 07:59:57;;;;;;;62.50;44.60;;;;;;;;;;4965262;28;20218;-83
2024/03/22 08:02:23;;;;;;;64.20;44.13;;;;;;;;;;4992108;28;20263;-85
2024/03/22 08:04:49;;;;;;;64.83;44.43;;;;;;;;;;4961884;28;20233;-83
2024/03/22 08:07:20;;;;;;;66.47;44.00;;;;;;;;;;4959870;28;20235;-84
2024/03/22 08:09:47;;;;;;;63.87;44.43;;;;;;;;;;4976140;28;20223;-84
2024/03/22 08:12:13;;;;;;;63.33;44.30;;;;;;;;;;4955355;28;20224;-85
2024/03/22 08:14:41;;;;;;;62.90;43.73;;;;;;;;;;4979052;28;20233;-84
2024/03/22 08:17:10;;;;;;;58.93;43.87;;;;;;;;;;4962522;28;20222;-83
2024/03/22 08:19:37;;;;;;;62.57;43.70;;;;;;;;;;5006936;28;20244;-84
2024/03/22 08:22:05;;;;;;;66.00;44.53;;;;;;;;;;5012246;28;20304;-83
2024/03/22 08:24:35;;;;;;;68.83;44.60;;;;;;;;;;4962764;28;20252;-85
2024/03/22 08:27:03;;;;;;;65.90;44.70;;;;;;;;;;4956624;28;20742;-83
2024/03/22 08:29:31;;;;;;;66.13;45.80;;;;;;;;;;4954332;28;20300;-85
2024/03/22 08:31:57;;;;;;;70.13;46.47;;;;;;;;;;5009758;28;20233;-84
2024/03/22 08:34:23;;;;;;;70.40;46.63;;;;;;;;;;5003137;28;20260;-86
2024/03/22 08:36:50;;;;;;;66.00;44.13;;;;;;;;;;4993382;28;20221;-85
2024/03/22 08:39:18;;;;;;;71.47;46.63;;;;;;;;;;4994862;28;20276;-84
2024/03/22 08:41:46;;;;;;;74.20;47.27;;;;;;;;;;4995681;28;20213;-85
2024/03/22 08:44:16;;;;;;;70.20;46.80;;;;;;;;;;4981556;28;20371;-84
2024/03/22 08:46:46;;;;;;;74.50;46.67;;;;;;;;;;4998228;28;20220;-84
2024/03/22 08:49:19;;;;;;;74.43;47.93;;;;;;;;;;4966546;28;20217;-84
2024/03/22 08:51:45;;;;;;;75.53;50.43;;;;;;;;;;4995033;28;20221;-86
2024/03/22 08:54:11;;;;;;;76.60;47.87;;;;;;;;;;4979272;28;20766;-85
2024/03/22 08:56:39;;;;;;;77.63;50.27;;;;;;;;;;5012562;28;20229;-84
2024/03/22 08:59:05;;;;;;;79.70;51.07;;;;;;;;;;4965016;28;20237;-85
2024/03/22 09:01:32;;;;;;;80.10;52.93;;;;;;;;;;4996212;28;20280;-85
2024/03/22 09:03:57;;;;;;;73.67;49.67;;;;;;;;;;4976797;28;20226;-85
2024/03/22 09:06:26;;;;;;;72.60;46.83;;;;;;;;;;4996990;28;20305;-84
2024/03/22 09:08:51;;;;;;;70.47;46.77;;;;;;;;;;5010456;28;20315;-83
2024/03/22 09:11:18;;;;;;;76.63;48.03;;;;;;;;;;4961625;28;20225;-86
2024/03/22 09:13:49;;;;;;;70.50;46.23;;;;;;;;;;4981526;28;20221;-85
2024/03/22 09:16:17;;;;;;;69.40;45.13;;;;;;;;;;4975553;28;20222;-84
2024/03/22 09:18:43;;;;;;;65.77;46.47;;;;;;;;;;4966231;28;20217;-85
2024/03/22 09:21:15;;;;;;;65.47;45.40;;;;;;;;;;5009387;28;20232;-84
2024/03/22 09:23:41;;;;;;;66.20;44.13;;;;;;;;;;4999949;28;20304;-83
2024/03/22 09:26:09;;;;;;;63.73;44.30;;;;;;;;;;4991123;28;20226;-84
2024/03/22 09:28:34;;;;;;;64.73;44.20;;;;;;;;;;5010527;28;20283;-84
2024/03/22 09:31:05;;;;;;;59.90;42.80;;;;;;;;;;4961252;28;20233;-86
2024/03/22 09:33:36;;;;;;;58.57;42.60;;;;;;;;;;4996788;28;20625;-86
2024/03/22 09:36:05;;;;;;;63.60;45.40;;;;;;;;;;5006587;28;20244;-83
2024/03/22 09:38:30;;;;;;;57.43;40.33;;;;;;;;;;4990236;28;20222;-86
2024/03/22 09:40:56;;;;;;;58.63;42.03;;;;;;;;;;5014113;28;20925;-85
2024/03/22 09:43:24;;;;;;;58.00;41.67;;;;;;;;;;4961571;28;20417;-83
2024/03/22 09:46:00;;;;;;;57.60;41.13;;;;;;;;;;5019520;28;20235;-85
2024/03/22 09:48:28;;;;;;;58.17;41.37;;;;;;;;;;4982260;28;20296;-83
2024/03/22 09:50:54;;;;;;;52.53;39.97;;;;;;;;;;4977511;28;20746;-85
2024/03/22 09:53:22;;;;;;;56.57;40.53;;;;;;;;;;4965661;28;20365;-85
2024/03/22 09:55:57;;;;;;;55.83;41.23;;;;;;;;;;4981218;28;20225;-84
2024/03/22 09:58:23;;;;;;;56.70;41.47;;;;;;;;;;4981600;28;20247;-83
2024/03/22 10:00:48;;;;;;;58.33;41.87;;;;;;;;;;4983587;28;20745;-87
2024/03/22 10:03:15;;;;;;;59.20;42.90;;;;;;;;;;5009836;28;20268;-85
2024/03/22 10:05:43;;;;;;;57.37;41.37;;;;;;;;;;4990975;28;20297;-84
2024/03/22 10:08:10;;;;;;;59.17;42.43;;;;;;;;;;4994023;28;20221;-83
2024/03/22 10:10:37;;;;;;;57.93;42.33;;;;;;;;;;5012215;28;20240;-84
2024/03/22 10:13:08;;;;;;;58.80;43.17;;;;;;;;;;4962781;28;20494;-84
2024/03/22 10:15:36;;;;;;;71.63;51.33;;;;;;;;;;4991866;28;20225;-84
2024/03/22 10:18:02;;;;;;;63.67;47.73;;;;;;;;;;4998426;28;20221;-87
2024/03/22 10:20:28;;;;;;;69.17;49.97;;;;;;;;;;4969260;28;20217;-86
2024/03/22 10:22:57;;;;;;;64.07;45.23;;;;;;;;;;4962459;28;20221;-84
2024/03/22 10:25:26;;;;;;;60.27;43.27;;;;;;;;;;4950324;28;20725;-85
2024/03/22 10:27:56;;;;;;;57.20;42.17;;;;;;;;;;4994611;28;20674;-87
2024/03/22 10:30:23;;;;;;;58.93;43.03;;;;;;;;;;4978546;28;20244;-88
2024/03/22 10:32:52;;;;;;;61.37;43.33;;;;;;;;;;4996353;28;20226;-83
2024/03/22 10:35:20;;;;;;;59.40;42.90;;;;;;;;;;4977678;28;20719;-85
2024/03/22 10:37:48;;;;;;;59.93;42.70;;;;;;;;;;5002296;28;20658;-87
2024/03/22 10:40:16;;;;;;;57.67;43.47;;;;;;;;;;4967354;28;20228;-85
2024/03/22 10:42:50;;;;;;;55.30;41.30;;;;;;;;;;4967943;28;20218;-83
2024/03/22 10:45:16;;;;;;;56.53;41.33;;;;;;;;;;4982985;28;20228;-84
2024/03/22 10:47:48;;;;;;;53.47;40.43;;;;;;;;;;4972217;28;20218;-84
2024/03/22 10:50:14;;;;;;;54.53;40.17;;;;;;;;;;4965651;28;20236;-85
2024/03/22 10:52:47;;;;;;;51.00;38.60;;;;;;;;;;4982480;28;20224;-84
2024/03/22 10:55:30;;;;;;;51.63;38.80;;;;;;;;;;4982230;28;20265;-83
2024/03/22 10:57:57;;;;;;;53.97;37.73;;;;;;;;;;4984393;28;20225;-85
2024/03/22 11:00:32;;;;;;;51.87;37.70;;;;;;;;;;4992258;28;20235;-86
2024/03/22 11:02:59;;;;;;;50.13;38.43;;;;;;;;;;4979579;28;20256;-83
2024/03/22 11:05:28;;;;;;;50.87;37.43;;;;;;;;;;4981490;28;20225;-84
2024/03/22 11:08:00;;;;;;;49.13;38.73;;;;;;;;;;4967956;28;20261;-85
2024/03/22 11:10:30;;;;;;;52.70;38.40;;;;;;;;;;5006370;28;20233;-84
2024/03/22 11:12:55;;;;;;;49.53;38.57;;;;;;;;;;4965999;28;20316;-84
2024/03/22 11:15:22;;;;;;;54.30;39.70;;;;;;;;;;4967922;28;20247;-82
2024/03/22 11:17:49;;;;;;;51.27;37.60;;;;;;;;;;4994538;28;20549;-84
2024/03/22 11:20:15;;;;;;;52.90;38.40;;;;;;;;;;4987966;28;20662;-86
2024/03/22 11:22:41;;;;;;;48.67;37.83;;;;;;;;;;5011533;28;20218;-84
2024/03/22 11:25:07;;;;;;;48.87;37.37;;;;;;;;;;4983008;28;21030;-85
2024/03/22 11:27:33;;;;;;;48.10;37.03;;;;;;;;;;4993777;28;20690;-81
2024/03/22 11:30:00;;;;;;;47.33;36.50;;;;;;;;;;4980604;28;20232;-78
2024/03/22 11:32:26;;;;;;;48.83;37.40;;;;;;;;;;4989593;28;20222;-79
2024/03/22 11:34:51;;;;;;;45.53;35.00;;;;;;;;;;4985998;28;20596;-80
2024/03/22 11:37:17;;;;;;;44.10;34.37;;;;;;;;;;4983779;28;20229;-78
2024/03/22 11:39:42;;;;;;;45.30;34.53;;;;;;;;;;4989349;28;20233;-81
2024/03/22 11:42:08;;;;;;;42.93;32.47;;;;;;;;;;4988230;28;20228;-78
2024/03/22 11:44:35;;;;;;;43.23;33.57;;;;;;;;;;4984739;28;20228;-77
2024/03/22 11:47:01;;;;;;;40.47;31.00;;;;;;;;;;4995983;28;20225;-86
2024/03/22 11:49:26;;;;;;;40.67;30.67;;;;;;;;;;4960702;28;20650;-84
2024/03/22 11:51:52;;;;;;;38.70;30.13;;;;;;;;;;4976808;28;20245;-88
2024/03/22 11:54:23;;;;;;;37.60;29.00;;;;;;;;;;4973471;28;20263;-82
2024/03/22 11:56:51;;;;;;;33.57;27.03;;;;;;;;;;4971366;28;20910;-82
2024/03/22 11:59:20;;;;;;;31.83;25.20;;;;;;;;;;4988277;28;20221;-85
2024/03/22 12:01:50;;;;;;;31.10;24.47;;;;;;;;;;4960441;28;20240;-82
2024/03/22 12:04:15;;;;;;;30.03;24.90;;;;;;;;;;4956720;28;20229;-83
2024/03/22 12:06:46;;;;;;;29.00;23.40;;;;;;;;;;4961422;28;20221;-87
2024/03/22 12:09:13;;;;;;;29.47;23.07;;;;;;;;;;4970885;28;20312;-85
2024/03/22 12:11:39;;;;;;;25.23;21.33;;;;;;;;;;4954088;28;20257;-81
2024/03/22 12:14:05;;;;;;;23.70;20.40;;;;;;;;;;4989395;28;20226;-82
2024/03/22 12:16:30;;;;;;;22.97;19.20;;;;;;;;;;4986463;28;20221;-84
2024/03/22 12:18:56;;;;;;;21.07;18.70;;;;;;;;;;4962905;28;20276;-85
2024/03/22 12:21:24;;;;;;;21.13;17.97;;;;;;;;;;4995846;28;20210;-84
2024/03/22 12:23:52;;;;;;;20.57;18.17;;;;;;;;;;4994880;28;20228;-85
2024/03/22 12:26:23;;;;;;;24.63;20.83;;;;;;;;;;5010198;28;20658;-85
2024/03/22 12:28:49;;;;;;;26.53;21.03;;;;;;;;;;4971365;28;20214;-86
2024/03/22 12:31:17;;;;;;;25.77;20.40;;;;;;;;;;4959881;28;20241;-85
2024/03/22 12:33:44;;;;;;;25.67;19.53;;;;;;;;;;4975825;28;20225;-84
2024/03/22 12:36:13;;;;;;;23.33;20.23;;;;;;;;;;4975407;28;20308;-85
2024/03/22 12:38:39;;;;;;;22.07;19.20;;;;;;;;;;4994179;28;20868;-88
2024/03/22 12:41:05;;;;;;;21.37;18.13;;;;;;;;;;4976156;28;20232;-84
2024/03/22 12:43:31;;;;;;;20.90;18.43;;;;;;;;;;4977829;28;20228;-84
2024/03/22 12:45:56;;;;;;;20.23;17.77;;;;;;;;;;4973952;28;20225;-85
2024/03/22 12:48:26;;;;;;;19.03;17.03;;;;;;;;;;4970654;28;20229;-86
2024/03/22 12:50:53;;;;;;;19.97;17.23;;;;;;;;;;4989671;28;20225;-87
2024/03/22 12:53:18;;;;;;;21.73;17.70;;;;;;;;;;4976243;28;20229;-85
2024/03/22 12:55:46;;;;;;;20.27;16.97;;;;;;;;;;4995678;28;20309;-88
2024/03/22 12:58:12;;;;;;;21.27;17.33;;;;;;;;;;4996829;28;20770;-87
2024/03/22 13:00:40;;;;;;;19.60;17.17;;;;;;;;;;4966668;28;20316;-88
2024/03/22 13:03:06;;;;;;;20.47;17.63;;;;;;;;;;5003833;28;20232;-85
2024/03/22 13:05:31;;;;;;;19.20;15.83;;;;;;;;;;4999056;28;20277;-84
2024/03/22 13:07:57;;;;;;;22.63;16.60;;;;;;;;;;4996501;28;20243;-85
2024/03/22 13:10:22;;;;;;;19.20;16.50;;;;;;;;;;4974307;28;20353;-85
2024/03/22 13:12:50;;;;;;;19.07;15.93;;;;;;;;;;4977136;28;20249;-86
2024/03/22 13:15:21;;;;;;;19.97;16.57;;;;;;;;;;5006723;28;20217;-83
2024/03/22 13:17:49;;;;;;;18.87;15.40;;;;;;;;;;5007820;28;20751;-86
2024/03/22 13:20:15;;;;;;;19.53;15.87;;;;;;;;;;5005766;28;20749;-84
2024/03/22 13:22:41;;;;;;;17.70;15.00;;;;;;;;;;4958267;28;20233;-84
2024/03/22 13:25:10;;;;;;;21.60;16.03;;;;;;;;;;4989520;28;20228;-81
2024/03/22 13:27:39;;;;;;;20.50;15.70;;;;;;;;;;4952898;28;20324;-85
2024/03/22 13:30:12;;;;;;;17.57;15.60;;;;;;;;;;5010962;28;20736;-83
2024/03/22 13:32:44;;;;;;;17.17;14.80;;;;;;;;;;4962116;28;20372;-85
2024/03/22 13:35:10;;;;;;;18.47;15.13;;;;;;;;;;4970736;28;20240;-84
2024/03/22 13:37:35;;;;;;;15.80;14.10;;;;;;;;;;4983037;28;20225;-82
2024/03/22 13:40:01;;;;;;;16.60;13.40;;;;;;;;;;4983858;28;20255;-80
2024/03/22 13:42:31;;;;;;;15.03;13.03;;;;;;;;;;4984556;28;20225;-86
2024/03/22 13:44:59;;;;;;;15.13;13.03;;;;;;;;;;5018648;28;20237;-85
2024/03/22 13:47:27;;;;;;;14.03;12.57;;;;;;;;;;4979189;28;20245;-85
2024/03/22 13:49:53;;;;;;;14.13;12.37;;;;;;;;;;5005015;28;20221;-84
2024/03/22 13:52:20;;;;;;;16.17;12.47;;;;;;;;;;4975729;28;20232;-84
2024/03/22 13:54:46;;;;;;;17.13;14.63;;;;;;;;;;4998481;28;20220;-87
2024/03/22 13:57:12;;;;;;;14.90;13.33;;;;;;;;;;4993676;28;20305;-84
2024/03/22 13:59:39;;;;;;;14.27;12.77;;;;;;;;;;5012033;28;20852;-83
2024/03/22 14:02:06;;;;;;;13.67;12.17;;;;;;;;;;5005267;28;20232;-83
2024/03/22 14:04:32;;;;;;;14.17;12.20;;;;;;;;;;4994713;28;20284;-86
2024/03/22 14:06:57;;;;;;;16.17;13.50;;;;;;;;;;5004845;28;20308;-85
2024/03/22 14:09:26;;;;;;;13.10;11.70;;;;;;;;;;4992956;28;20224;-86
2024/03/22 14:11:55;;;;;;;15.40;13.20;;;;;;;;;;4988326;28;20241;-86
2024/03/22 14:14:20;;;;;;;15.77;14.07;;;;;;;;;;4973357;28;20229;-87
2024/03/22 14:16:48;;;;;;;15.80;13.83;;;;;;;;;;5002859;28;20237;-82
2024/03/22 14:19:22;;;;;;;16.73;13.50;;;;;;;;;;5011672;28;20260;-85
2024/03/22 14:21:47;;;;;;;16.13;14.13;;;;;;;;;;4998070;28;20272;-84